Time;durP1;ratioP1;P1;durP2;ratioP2;P2;SDS_P1;SDS_P2;PMS_P1;PMS_P2;Temp;Humidity;BMP_temperature;BMP_pressure;BME280_temperature;BME280_humidity;BME280_pressure;Samples;Min_cycle;Max_cycle;Signal;HPM_P1;HPM_P2
2022/07/31 00:02:17;;;;;;;5.10;3.10;;;;;;;18.81;100.00;101570.84;6221581;28;20053;-72
2022/07/31 00:05:19;;;;;;;4.70;3.67;;;;;;;18.80;100.00;101571.78;6221897;28;20057;-72
2022/07/31 00:08:21;;;;;;;7.43;4.00;;;;;;;18.79;100.00;101566.59;6221695;28;20046;-72
2022/07/31 00:11:22;;;;;;;6.20;3.60;;;;;;;18.77;100.00;101561.38;6221756;28;20066;-73
2022/07/31 00:14:23;;;;;;;5.68;3.75;;;;;;;18.76;100.00;101559.69;6226287;28;20528;-72
2022/07/31 00:17:25;;;;;;;5.30;4.03;;;;;;;18.77;100.00;101545.41;6226693;28;20054;-72
2022/07/31 00:20:27;;;;;;;8.90;3.83;;;;;;;18.77;100.00;101549.88;6226533;28;20050;-72
2022/07/31 00:23:29;;;;;;;5.75;4.00;;;;;;;18.77;100.00;101548.06;6226495;28;20057;-72
2022/07/31 00:26:30;;;;;;;8.05;4.30;;;;;;;18.71;100.00;101556.50;6226442;28;20054;-72
2022/07/31 00:29:32;;;;;;;7.82;4.60;;;;;;;18.71;100.00;101551.16;6226109;28;20137;-71
2022/07/31 00:32:33;;;;;;;7.07;4.07;;;;;;;18.66;100.00;101553.31;6226194;28;20049;-72
2022/07/31 00:35:36;;;;;;;5.38;3.85;;;;;;;18.62;100.00;101551.81;6226021;28;20057;-72
2022/07/31 00:38:37;;;;;;;7.25;4.13;;;;;;;18.61;100.00;101555.47;6241759;28;20045;-72
2022/07/31 00:41:41;;;;;;;9.38;4.80;;;;;;;18.62;100.00;101552.69;6233758;28;20046;-71
2022/07/31 00:44:42;;;;;;;5.75;4.05;;;;;;;18.63;100.00;101548.22;6201651;28;20050;-71
2022/07/31 00:47:43;;;;;;;9.05;4.45;;;;;;;18.58;100.00;101537.91;6219916;28;20061;-71
2022/07/31 00:50:46;;;;;;;7.68;4.55;;;;;;;18.57;100.00;101536.19;6242879;28;20046;-72
2022/07/31 00:53:47;;;;;;;8.32;4.30;;;;;;;18.58;100.00;101537.91;6250235;28;20511;-72
2022/07/31 00:56:49;;;;;;;5.43;3.60;;;;;;;18.52;100.00;101531.22;6250455;28;20050;-71
2022/07/31 00:59:50;;;;;;;8.35;4.07;;;;;;;18.47;100.00;101541.34;6250061;28;20390;-72
2022/07/31 01:02:51;;;;;;;5.22;3.85;;;;;;;18.46;100.00;101537.00;6249806;28;20056;-72
2022/07/31 01:05:54;;;;;;;5.80;4.47;;;;;;;18.45;100.00;101535.31;6250112;28;20049;-71
2022/07/31 01:08:56;;;;;;;8.63;4.70;;;;;;;18.43;100.00;101526.56;6243516;28;20416;-71
2022/07/31 01:12:02;;;;;;;8.50;4.22;;;;;;;18.45;100.00;101518.50;6244024;28;20135;-71
2022/07/31 01:15:08;;;;;;;8.85;5.32;;;;;;;18.42;100.00;101527.53;6249680;28;20050;-71
2022/07/31 01:18:11;;;;;;;6.00;4.43;;;;;;;18.41;100.00;101525.84;6249749;28;20409;-71
2022/07/31 01:21:20;;;;;;;7.63;4.68;;;;;;;18.38;100.00;101535.88;6250425;28;20060;-71
2022/07/31 01:24:41;;;;;;;5.22;4.00;;;;;;;18.36;100.00;101533.31;6248960;28;20536;-72
2022/07/31 01:27:56;;;;;;;6.88;4.35;;;;;;;18.34;100.00;101527.25;6249982;28;20049;-72
2022/07/31 01:31:04;;;;;;;9.15;5.00;;;;;;;18.34;100.00;101529.06;6249342;28;20049;-72
2022/07/31 01:34:10;;;;;;;5.70;3.88;;;;;;;18.28;100.00;101521.53;6249246;28;20517;-71
2022/07/31 01:37:15;;;;;;;6.22;4.30;;;;;;;18.20;100.00;101527.41;6249349;28;20049;-72
2022/07/31 01:40:22;;;;;;;6.50;4.63;;;;;;;18.10;100.00;101531.72;6249081;28;20056;-71
2022/07/31 01:43:29;;;;;;;8.40;4.35;;;;;;;18.06;100.00;101532.91;6249185;28;20061;-72
2022/07/31 01:46:34;;;;;;;11.55;5.18;;;;;;;18.08;100.00;101521.19;6248806;28;20049;-71
2022/07/31 01:49:37;;;;;;;6.07;4.32;;;;;;;18.06;100.00;101516.94;6249264;28;20045;-72
2022/07/31 01:52:41;;;;;;;10.35;4.93;;;;;;;17.99;100.00;101522.72;6248729;28;20428;-72
2022/07/31 01:55:43;;;;;;;6.93;4.53;;;;;;;17.92;100.00;101524.09;6248910;28;20046;-72
2022/07/31 01:58:46;;;;;;;8.35;4.45;;;;;;;17.86;100.00;101515.72;6248701;28;20632;-72
2022/07/31 02:01:49;;;;;;;7.68;4.82;;;;;;;17.86;100.00;101521.88;6248535;28;20053;-72
2022/07/31 02:04:51;;;;;;;8.32;4.90;;;;;;;17.88;100.00;101521.78;6248404;28;21240;-72
2022/07/31 02:07:54;;;;;;;8.35;5.18;;;;;;;17.87;100.00;101518.25;6248709;28;20046;-72
2022/07/31 02:10:57;;;;;;;10.57;6.28;;;;;;;17.91;100.00;101511.75;6248329;28;20049;-71
2022/07/31 02:14:00;;;;;;;11.88;6.22;;;;;;;17.96;100.00;101506.97;6247978;28;20056;-71
2022/07/31 02:17:03;;;;;;;10.88;6.15;;;;;;;17.98;100.00;101506.84;6248521;28;20049;-72
2022/07/31 02:20:09;;;;;;;8.68;5.18;;;;;;;17.98;100.00;101504.19;6248031;28;20072;-72
2022/07/31 02:23:11;;;;;;;11.32;6.82;;;;;;;17.96;100.00;101498.13;6248221;28;20053;-72
2022/07/31 02:26:15;;;;;;;9.52;5.50;;;;;;;17.98;100.00;101507.69;6247858;28;20512;-72
2022/07/31 02:29:20;;;;;;;9.45;5.45;;;;;;;17.99;100.00;101501.44;6248287;28;20084;-71
2022/07/31 02:32:24;;;;;;;7.90;5.03;;;;;;;17.97;100.00;101502.50;6247961;28;20054;-72
2022/07/31 02:35:25;;;;;;;9.43;5.43;;;;;;;17.93;100.00;101509.84;6247930;28;20444;-72
2022/07/31 02:38:28;;;;;;;11.32;6.53;;;;;;;17.91;100.00;101503.78;6247919;28;20052;-72
2022/07/31 02:41:30;;;;;;;8.50;6.07;;;;;;;17.90;100.00;101499.44;6247770;28;20076;-72
2022/07/31 02:44:33;;;;;;;11.50;5.40;;;;;;;17.88;100.00;101490.69;6247686;28;20053;-72
2022/07/31 02:47:36;;;;;;;10.70;5.78;;;;;;;17.87;100.00;101491.66;6247954;28;20134;-71
2022/07/31 02:50:38;;;;;;;7.95;5.70;;;;;;;17.87;100.00;101480.19;6247415;28;20052;-72
2022/07/31 02:53:39;;;;;;;9.43;5.65;;;;;;;17.84;100.00;101478.59;6228587;28;20049;-71
2022/07/31 02:56:41;;;;;;;7.28;5.03;;;;;;;17.85;100.00;101466.13;6222914;28;20057;-72
2022/07/31 02:59:43;;;;;;;8.20;5.25;;;;;;;17.84;100.00;101469.75;6222906;28;20405;-72
2022/07/31 03:02:46;;;;;;;7.22;5.25;;;;;;;17.83;100.00;101473.38;6222330;28;20079;-70
2022/07/31 03:05:47;;;;;;;8.02;5.50;;;;;;;17.81;100.00;101468.19;6222841;28;20053;-72
2022/07/31 03:08:49;;;;;;;11.13;5.75;;;;;;;17.80;100.00;101468.28;6222545;28;20042;-71
2022/07/31 03:11:50;;;;;;;11.00;5.65;;;;;;;17.83;100.00;101470.72;6222396;28;20433;-72
2022/07/31 03:14:54;;;;;;;13.07;6.53;;;;;;;17.78;100.00;101467.56;6222401;28;20065;-72
2022/07/31 03:17:57;;;;;;;11.80;6.13;;;;;;;17.73;100.00;101459.88;6222830;28;20057;-72
2022/07/31 03:20:58;;;;;;;10.13;6.38;;;;;;;17.73;100.00;101454.56;6222409;28;20053;-72
2022/07/31 03:24:00;;;;;;;10.50;6.50;;;;;;;17.72;100.00;101455.53;6222558;28;20049;-71
2022/07/31 03:27:02;;;;;;;10.77;6.82;;;;;;;17.72;100.00;101456.38;6222408;28;20053;-71
2022/07/31 03:30:05;;;;;;;10.50;6.70;;;;;;;17.70;100.00;101455.63;6222299;28;20520;-72
2022/07/31 03:33:08;;;;;;;8.85;6.30;;;;;;;17.66;100.00;101458.59;6222631;28;20050;-72
2022/07/31 03:36:09;;;;;;;11.65;6.38;;;;;;;17.66;100.00;101453.28;6222031;28;20053;-72
2022/07/31 03:39:10;;;;;;;11.30;6.78;;;;;;;17.68;100.00;101456.72;6222447;28;20053;-72
2022/07/31 03:42:13;;;;;;;12.27;6.57;;;;;;;17.67;100.00;101449.69;6221842;28;20057;-72
2022/07/31 03:45:16;;;;;;;10.55;7.28;;;;;;;17.70;100.00;101454.78;6222180;28;20050;-71
2022/07/31 03:48:19;;;;;;;16.48;7.80;;;;;;;17.68;100.00;101459.38;6227495;28;20054;-72
2022/07/31 03:51:20;;;;;;;11.00;7.00;;;;;;;17.68;100.00;101454.03;6230075;28;20081;-72
2022/07/31 03:54:22;;;;;;;13.85;6.50;;;;;;;17.65;100.00;101455.09;6230004;28;20060;-72
2022/07/31 03:57:26;;;;;;;10.73;6.55;;;;;;;17.64;100.00;101456.06;6230264;28;20052;-72
2022/07/31 04:00:29;;;;;;;11.93;7.43;;;;;;;17.65;100.00;101447.13;6230049;28;20054;-71
2022/07/31 04:03:31;;;;;;;12.25;7.20;;;;;;;17.62;100.00;101455.34;6229983;28;20494;-72
2022/07/31 04:06:33;;;;;;;12.25;6.82;;;;;;;17.65;100.00;101451.59;6229960;28;20160;-72
2022/07/31 04:09:35;;;;;;;12.50;7.75;;;;;;;17.65;100.00;101451.59;6230077;28;20041;-72
2022/07/31 04:12:36;;;;;;;13.15;8.05;;;;;;;17.66;100.00;101462.13;6229627;28;20050;-72
2022/07/31 04:15:37;;;;;;;12.55;7.53;;;;;;;17.63;100.00;101459.69;6229798;28;20497;-71
2022/07/31 04:18:40;;;;;;;11.68;8.30;;;;;;;17.65;100.00;101462.22;6230001;28;20065;-72
2022/07/31 04:21:41;;;;;;;14.77;7.90;;;;;;;17.64;100.00;101464.03;6229570;28;20049;-72
2022/07/31 04:24:43;;;;;;;12.52;6.43;;;;;;;17.67;100.00;101463.00;6229812;28;20052;-72
2022/07/31 04:27:44;;;;;;;12.65;7.20;;;;;;;17.66;100.00;101462.13;6229651;28;20469;-72
2022/07/31 04:30:45;;;;;;;13.50;7.70;;;;;;;17.67;100.00;101463.00;6229809;28;20053;-72
2022/07/31 04:33:49;;;;;;;14.23;7.93;;;;;;;17.69;100.00;101461.91;6229467;28;20061;-72
2022/07/31 04:36:50;;;;;;;11.45;7.35;;;;;;;17.71;100.00;101459.13;6229915;28;20494;-72
2022/07/31 04:39:51;;;;;;;12.52;8.00;;;;;;;17.73;100.00;101465.19;6229606;28;20046;-72
2022/07/31 04:42:53;;;;;;;13.35;8.38;;;;;;;17.69;100.00;101472.53;6229367;28;20080;-72
2022/07/31 04:45:54;;;;;;;12.63;8.52;;;;;;;17.69;100.00;101469.88;6229542;28;20056;-71
2022/07/31 04:48:57;;;;;;;13.15;7.68;;;;;;;17.69;100.00;101469.88;6228988;28;20053;-72
2022/07/31 04:51:59;;;;;;;10.95;7.63;;;;;;;17.68;100.00;101478.81;6229563;28;20050;-72
2022/07/31 04:55:00;;;;;;;15.20;7.93;;;;;;;17.69;100.00;101477.00;6229340;28;20050;-72
2022/07/31 04:58:01;;;;;;;12.70;7.50;;;;;;;17.70;100.00;101468.06;6228600;28;20054;-72
2022/07/31 05:01:03;;;;;;;11.88;7.53;;;;;;;17.72;100.00;101474.13;6224685;28;20052;-71
2022/07/31 05:04:06;;;;;;;14.35;7.95;;;;;;;17.71;100.00;101469.75;6225449;28;20057;-72
2022/07/31 05:07:07;;;;;;;12.38;7.25;;;;;;;17.73;100.00;101460.75;6225554;28;20053;-72
2022/07/31 05:11:21;;;;;;;14.18;8.23;;;;;;;17.74;100.00;101458.94;6225335;28;20049;-72
2022/07/31 05:13:32;;;;;;;12.57;7.32;;;;;;;17.79;100.00;101455.94;6224943;28;20050;-72
2022/07/31 05:16:36;;;;;;;12.57;7.32;;;;;;;17.81;100.00;101454.91;6215427;28;20046;-71
2022/07/31 05:19:38;;;;;;;13.07;7.72;;;;;;;17.85;100.00;101448.41;6220520;28;20057;-71
2022/07/31 05:22:40;;;;;;;11.45;7.22;;;;;;;17.85;100.00;101448.41;6219133;28;20050;-71
2022/07/31 05:25:41;;;;;;;14.45;8.55;;;;;;;17.86;100.00;101443.94;6200191;28;20460;-72
2022/07/31 05:28:43;;;;;;;14.13;7.85;;;;;;;17.87;100.00;101438.47;6219081;28;20045;-72
2022/07/31 05:31:44;;;;;;;14.13;7.78;;;;;;;17.86;100.00;101444.78;6221155;28;20054;-72
2022/07/31 05:34:47;;;;;;;8.27;6.20;;;;;;;17.85;100.00;101444.88;6224789;28;20056;-72
2022/07/31 05:37:48;;;;;;;11.30;7.53;;;;;;;17.84;100.00;101444.00;6215437;28;20525;-71
2022/07/31 05:40:49;;;;;;;18.48;9.38;;;;;;;17.84;100.00;101446.69;6209458;28;20050;-71
2022/07/31 05:43:51;;;;;;;11.43;7.00;;;;;;;17.86;100.00;101444.78;6221612;28;20398;-72
2022/07/31 05:46:52;;;;;;;13.57;7.63;;;;;;;17.90;100.00;101448.06;6224587;28;20065;-72
2022/07/31 05:49:55;;;;;;;13.38;8.07;;;;;;;17.85;100.00;101450.19;6224559;28;20054;-72
2022/07/31 05:52:56;;;;;;;13.98;7.05;;;;;;;17.91;100.00;101450.59;6224144;28;20425;-71
2022/07/31 05:55:57;;;;;;;12.45;8.07;;;;;;;17.97;100.00;101452.81;6224220;28;20053;-72
2022/07/31 05:58:59;;;;;;;16.15;8.52;;;;;;;17.97;100.00;101446.63;6224338;28;20053;-72
2022/07/31 06:02:00;;;;;;;13.75;8.18;;;;;;;18.03;100.00;101448.00;6223922;28;20061;-73
2022/07/31 06:05:03;;;;;;;13.55;8.00;;;;;;;18.10;100.00;101450.09;6223737;28;20054;-72
2022/07/31 06:08:05;;;;;;;10.68;7.13;;;;;;;18.20;100.00;101452.91;6208968;28;20445;-72
2022/07/31 06:11:06;;;;;;;11.48;6.93;;;;;;;18.29;100.00;101452.25;6208874;28;20054;-72
2022/07/31 06:14:08;;;;;;;14.60;7.53;;;;;;;18.36;100.00;101453.50;6211079;28;20054;-72
2022/07/31 06:17:09;;;;;;;11.80;6.80;;;;;;;18.43;100.00;101461.84;6208895;28;20054;-72
2022/07/31 06:20:13;;;;;;;8.27;5.40;;;;;;;18.51;100.00;101464.78;6211336;28;20048;-72
2022/07/31 06:23:14;;;;;;;9.75;5.95;;;;;;;18.59;100.00;101464.22;6210707;28;20053;-72
2022/07/31 06:26:15;;;;;;;8.35;5.40;;;;;;;18.64;100.00;101460.25;6209356;28;20046;-72
2022/07/31 06:29:17;;;;;;;12.32;4.80;;;;;;;18.69;100.00;101455.44;6210124;28;20042;-72
2022/07/31 06:32:19;;;;;;;15.85;5.35;;;;;;;18.75;100.00;101456.78;6209564;28;20054;-72
2022/07/31 06:35:22;;;;;;;8.50;4.43;;;;;;;18.77;100.00;101457.53;6209326;28;20048;-72
2022/07/31 06:38:24;;;;;;;9.00;5.68;;;;;;;18.78;100.00;101445.91;6210230;28;20051;-72
2022/07/31 06:44:58;;;;;;;8.38;5.10;;;;;;;18.95;100.00;101452.59;6168674;28;20133;-72
2022/07/31 06:48:00;;;;;;;5.60;3.92;;;;;;;19.08;100.00;101461.34;6209060;28;20066;-72
2022/07/31 06:51:02;;;;;;;6.68;3.90;;;;;;;19.17;100.00;101452.63;6202054;28;20047;-72
2022/07/31 06:54:05;;;;;;;4.03;2.78;;;;;;;19.29;100.00;101447.28;6198466;28;20054;-72
2022/07/31 06:57:07;;;;;;;8.18;3.30;;;;;;;19.37;100.00;101444.88;6198782;28;20050;-72
2022/07/31 07:00:10;;;;;;;7.20;3.60;;;;;;;19.40;100.00;101440.16;6200449;28;20046;-72
2022/07/31 07:03:11;;;;;;;5.15;2.70;;;;;;;19.44;100.00;101432.72;6209036;28;20050;-71
2022/07/31 07:06:14;;;;;;;5.57;3.33;;;;;;;19.50;100.00;101434.94;6198389;28;20069;-72
2022/07/31 07:09:15;;;;;;;3.78;2.80;;;;;;;19.58;100.00;101429.84;6198309;28;20494;-72
2022/07/31 07:12:17;;;;;;;2.60;2.20;;;;;;;19.67;100.00;101430.94;6198009;28;20046;-71
2022/07/31 07:15:18;;;;;;;2.35;1.90;;;;;;;19.75;100.00;101437.34;6198292;28;20446;-72
2022/07/31 07:18:20;;;;;;;3.67;2.10;;;;;;;19.77;100.00;101427.41;6202504;28;20052;-72
2022/07/31 07:21:23;;;;;;;4.35;2.17;;;;;;;19.84;100.00;101424.22;6229766;28;20041;-72
2022/07/31 07:24:24;;;;;;;3.13;2.25;;;;;;;19.89;100.00;101414.03;6240783;28;20053;-72
2022/07/31 07:27:26;;;;;;;2.33;1.90;;;;;;;19.96;100.00;101417.91;6234898;28;20493;-75
2022/07/31 07:30:27;;;;;;;5.78;2.42;;;;;;;20.01;100.00;101413.88;6238353;28;20048;-72
2022/07/31 07:33:30;;;;;;;3.65;2.13;;;;;;;20.08;100.00;101410.72;6238536;28;20056;-72
2022/07/31 07:36:33;;;;;;;3.38;2.03;;;;;;;20.10;99.02;101409.59;6246759;28;20057;-72
2022/07/31 07:39:34;;;;;;;2.20;2.00;;;;;;;20.17;99.75;101400.13;6246772;28;20500;-72
2022/07/31 07:42:35;;;;;;;2.75;1.95;;;;;;;20.21;100.00;101401.56;6247037;28;20045;-72
2022/07/31 07:45:38;;;;;;;3.22;1.85;;;;;;;20.29;100.00;101406.22;6246594;28;20512;-72
2022/07/31 07:48:40;;;;;;;4.25;2.17;;;;;;;20.32;100.00;101402.47;6246839;28;20053;-72
2022/07/31 07:51:42;;;;;;;2.67;1.58;;;;;;;20.37;98.57;101403.78;6235980;28;20513;-71
2022/07/31 07:54:43;;;;;;;3.20;1.90;;;;;;;20.41;97.65;101399.88;6213358;28;20054;-72
2022/07/31 07:57:45;;;;;;;2.63;1.58;;;;;;;20.46;95.89;101391.47;6200956;28;20525;-71
2022/07/31 08:00:46;;;;;;;2.20;1.60;;;;;;;20.50;95.51;101396.44;6208595;28;20057;-71
2022/07/31 08:03:48;;;;;;;1.80;1.40;;;;;;;20.50;93.48;101385.78;6221688;28;20073;-72
2022/07/31 08:06:50;;;;;;;1.77;1.52;;;;;;;20.55;95.64;101382.72;6221860;28;20058;-72
2022/07/31 08:09:52;;;;;;;2.70;1.73;;;;;;;20.64;93.54;101378.41;6206089;28;20064;-72
2022/07/31 08:12:53;;;;;;;1.60;1.50;;;;;;;20.71;93.37;101375.09;6197327;28;20051;-71
2022/07/31 08:15:55;;;;;;;3.28;1.92;;;;;;;20.81;94.52;101380.47;6197445;28;20050;-72
2022/07/31 08:18:56;;;;;;;4.18;2.15;;;;;;;20.87;96.64;101374.59;6197473;28;20502;-72
2022/07/31 08:21:59;;;;;;;1.70;1.48;;;;;;;20.89;95.10;101369.97;6197405;28;20046;-71
2022/07/31 08:25:00;;;;;;;3.60;1.80;;;;;;;20.96;94.50;101373.78;6197340;28;20058;-72
2022/07/31 08:28:01;;;;;;;3.25;1.38;;;;;;;20.99;94.71;101367.34;6197609;28;20054;-72
2022/07/31 08:31:03;;;;;;;3.45;1.85;;;;;;;21.01;95.26;101371.56;6197181;28;20521;-72
2022/07/31 08:34:05;;;;;;;2.78;1.42;;;;;;;21.07;95.06;101358.63;6199552;28;20053;-72
2022/07/31 08:37:07;;;;;;;2.97;1.50;;;;;;;21.12;91.97;101365.28;6201772;28;20073;-72
2022/07/31 08:40:10;;;;;;;1.90;1.60;;;;;;;21.16;93.59;101366.69;6201681;28;20051;-72
2022/07/31 08:43:11;;;;;;;1.85;1.65;;;;;;;21.21;91.94;101361.81;6201673;28;20417;-72
2022/07/31 08:46:13;;;;;;;6.53;2.50;;;;;;;21.26;92.39;101359.56;6201491;28;20076;-72
2022/07/31 08:49:16;;;;;;;4.05;1.50;;;;;;;21.34;92.96;101353.53;6201534;28;20117;-71
2022/07/31 08:52:20;;;;;;;2.72;1.77;;;;;;;21.38;91.55;101362.16;6228973;28;20038;-73
2022/07/31 08:55:22;;;;;;;2.22;1.60;;;;;;;21.44;88.86;101356.28;6240437;28;20069;-72
2022/07/31 08:58:24;;;;;;;1.40;1.30;;;;;;;21.50;83.67;101348.53;6243692;28;20412;-72
2022/07/31 09:01:25;;;;;;;2.35;1.25;;;;;;;21.53;84.39;101345.59;6241744;28;20072;-72
2022/07/31 09:04:26;;;;;;;1.70;1.23;;;;;;;21.59;85.81;101344.19;6249887;28;20424;-72
2022/07/31 09:07:29;;;;;;;3.10;1.35;;;;;;;21.61;80.32;101344.88;6242854;28;20053;-72
2022/07/31 09:10:30;;;;;;;2.42;1.30;;;;;;;21.68;82.00;101343.34;6241656;28;20049;-72
2022/07/31 09:13:33;;;;;;;1.33;1.13;;;;;;;21.68;83.11;101345.19;6249696;28;20052;-73
2022/07/31 09:16:45;;;;;;;3.15;1.40;;;;;;;21.69;86.38;101337.00;6249797;28;20090;-72
2022/07/31 09:19:48;;;;;;;2.67;1.63;;;;;;;21.72;87.58;101338.56;6249571;28;20055;-72
2022/07/31 09:23:04;;;;;;;1.65;1.35;;;;;;;21.77;85.87;101337.16;6249971;28;20489;-72
2022/07/31 09:26:06;;;;;;;1.83;1.40;;;;;;;21.82;86.46;101333.22;6249521;28;20055;-72
2022/07/31 09:29:10;;;;;;;2.60;1.38;;;;;;;21.86;88.12;101339.97;6249757;28;20064;-72
2022/07/31 09:32:14;;;;;;;3.90;1.50;;;;;;;21.89;88.79;101337.88;6249143;28;20052;-72
2022/07/31 09:35:15;;;;;;;3.40;1.60;;;;;;;21.95;84.32;101325.75;6237875;28;20046;-72
2022/07/31 09:38:19;;;;;;;1.20;1.10;;;;;;;22.00;86.31;101316.31;6246072;28;20064;-72
2022/07/31 09:41:21;;;;;;;1.50;1.13;;;;;;;22.05;86.43;101307.84;6249013;28;20419;-71
2022/07/31 09:44:23;;;;;;;2.97;1.58;;;;;;;22.08;85.03;101306.72;6248536;28;20057;-73
2022/07/31 09:47:28;;;;;;;2.72;1.42;;;;;;;22.13;85.72;101323.25;6249135;28;20049;-71
2022/07/31 09:50:30;;;;;;;1.35;1.23;;;;;;;22.15;83.95;101308.72;6248943;28;20050;-71
2022/07/31 09:53:45;;;;;;;1.48;1.10;;;;;;;22.16;85.29;101310.38;6249127;28;20077;-72
2022/07/31 09:56:48;;;;;;;1.58;1.45;;;;;;;22.16;83.78;101307.72;6249033;28;20128;-72
2022/07/31 09:59:49;;;;;;;3.83;1.60;;;;;;;22.17;82.34;101304.06;6243257;28;20049;-71
2022/07/31 10:02:53;;;;;;;1.30;1.13;;;;;;;22.18;85.10;101308.44;6224315;28;20057;-73
2022/07/31 10:05:57;;;;;;;2.15;1.58;;;;;;;22.18;85.22;101304.91;6223890;28;20049;-72
2022/07/31 10:09:01;;;;;;;1.70;1.48;;;;;;;22.21;82.26;101307.28;6217256;28;20046;-72
2022/07/31 10:12:04;;;;;;;1.38;1.17;;;;;;;22.20;84.08;101301.09;6209556;28;20046;-73
2022/07/31 10:15:11;;;;;;;1.60;1.25;;;;;;;22.20;82.41;101292.22;6208916;28;20068;-73
2022/07/31 10:18:16;;;;;;;1.88;1.40;;;;;;;22.23;84.93;101297.28;6208797;28;20057;-73
2022/07/31 10:21:18;;;;;;;1.05;0.93;;;;;;;22.25;83.57;101295.28;6209414;28;20050;-73
2022/07/31 10:24:22;;;;;;;3.38;1.10;;;;;;;22.38;76.42;101290.47;6210144;28;20042;-72
2022/07/31 10:27:23;;;;;;;1.83;1.30;;;;;;;22.53;75.85;101278.31;6199483;28;20058;-73
2022/07/31 10:30:25;;;;;;;2.90;1.38;;;;;;;22.72;73.71;101274.72;6198834;28;20053;-73
2022/07/31 10:33:27;;;;;;;3.35;1.30;;;;;;;22.93;71.64;101270.97;6214406;28;20050;-72
2022/07/31 10:36:35;;;;;;;2.42;1.20;;;;;;;23.09;73.48;101267.66;6223209;28;20089;-73
2022/07/31 10:39:45;;;;;;;1.35;1.10;;;;;;;23.20;70.46;101262.06;6223562;28;20049;-73
2022/07/31 10:42:52;;;;;;;1.58;1.10;;;;;;;23.29;68.33;101258.47;6223264;28;20045;-72
2022/07/31 10:45:55;;;;;;;1.20;1.08;;;;;;;23.33;68.82;101251.81;6223261;28;20141;-72
2022/07/31 10:48:56;;;;;;;2.47;1.00;;;;;;;23.41;66.12;101251.88;6214214;28;20069;-70
2022/07/31 10:51:58;;;;;;;1.48;0.98;;;;;;;23.44;65.27;101242.72;6203065;28;20042;-73
2022/07/31 10:55:01;;;;;;;3.90;1.13;;;;;;;23.42;66.77;101248.22;6198531;28;20731;-73
2022/07/31 10:58:10;;;;;;;2.75;0.80;;;;;;;23.54;64.08;101241.63;6197903;28;20054;-72
2022/07/31 11:01:11;;;;;;;0.70;0.70;;;;;;;23.59;64.19;101240.31;6198726;28;20047;-73
2022/07/31 11:04:13;;;;;;;1.98;0.82;;;;;;;23.68;63.07;101237.56;6198153;28;20422;-72
2022/07/31 11:07:18;;;;;;;2.50;1.35;;;;;;;23.86;62.17;101231.34;6198596;28;20046;-73
2022/07/31 11:10:21;;;;;;;1.92;1.15;;;;;;;23.97;60.67;101233.75;6198208;28;20192;-72
2022/07/31 11:13:24;;;;;;;2.63;1.08;;;;;;;24.01;60.98;101229.75;6220908;28;20052;-73
2022/07/31 11:16:26;;;;;;;1.52;0.80;;;;;;;24.06;60.90;101224.75;6232402;28;20046;-73
2022/07/31 11:19:37;;;;;;;1.05;0.93;;;;;;;24.10;64.07;101215.38;6245385;28;20046;-73
2022/07/31 11:22:41;;;;;;;1.10;1.00;;;;;;;24.20;61.49;101208.06;6246855;28;20132;-72
2022/07/31 11:25:45;;;;;;;1.10;1.00;;;;;;;24.20;60.92;101207.22;6246968;28;20048;-73
2022/07/31 11:28:46;;;;;;;1.10;1.00;;;;;;;24.15;62.65;101202.31;6246741;28;20053;-73
2022/07/31 11:31:47;;;;;;;1.65;1.38;;;;;;;24.10;62.80;101201.13;6246441;28;20386;-72
2022/07/31 11:34:52;;;;;;;1.85;1.35;;;;;;;24.15;61.20;101198.81;6236288;28;20045;-73
2022/07/31 11:37:54;;;;;;;2.03;1.27;;;;;;;24.33;60.26;101194.19;6247058;28;20056;-73
2022/07/31 11:40:57;;;;;;;1.17;1.08;;;;;;;24.38;61.31;101199.13;6246641;28;20046;-72
2022/07/31 11:43:59;;;;;;;4.78;1.20;;;;;;;24.34;58.95;101201.25;6246697;28;20050;-69
2022/07/31 11:47:00;;;;;;;3.30;1.52;;;;;;;24.33;58.94;101199.56;6246769;28;20056;-69
2022/07/31 11:50:02;;;;;;;2.28;1.48;;;;;;;24.24;61.32;101187.94;6246360;28;20049;-70
2022/07/31 11:53:05;;;;;;;3.08;1.63;;;;;;;24.17;62.19;101194.97;6246766;28;20056;-70
2022/07/31 11:56:08;;;;;;;1.75;1.40;;;;;;;24.11;63.94;101200.13;6246352;28;20050;-71
2022/07/31 11:59:09;;;;;;;1.20;1.10;;;;;;;24.12;60.73;101197.28;6246704;28;20049;-71
2022/07/31 12:02:12;;;;;;;2.22;1.30;;;;;;;24.09;62.07;101200.28;6246089;28;20042;-70
2022/07/31 12:05:14;;;;;;;1.42;1.15;;;;;;;24.15;60.91;101193.44;6246536;28;20062;-70
2022/07/31 12:08:16;;;;;;;2.10;1.27;;;;;;;24.04;61.09;101202.59;6247654;28;20049;-71
2022/07/31 12:11:20;;;;;;;1.23;1.00;;;;;;;24.13;60.03;101184.69;6251157;28;20435;-71
2022/07/31 12:14:29;;;;;;;1.13;1.02;;;;;;;24.16;60.55;101189.72;6251215;28;20049;-71
2022/07/31 12:17:30;;;;;;;4.97;1.48;;;;;;;24.21;59.23;101184.72;6246448;28;20054;-71
2022/07/31 12:20:32;;;;;;;1.75;1.05;;;;;;;24.19;59.64;101179.53;6235407;28;20045;-71
2022/07/31 12:23:40;;;;;;;1.83;1.40;;;;;;;24.24;61.08;101170.97;6241464;28;20046;-71
2022/07/31 12:26:50;;;;;;;1.45;1.20;;;;;;;24.32;60.20;101179.09;6219128;28;20468;-71
2022/07/31 12:29:51;;;;;;;2.42;1.20;;;;;;;24.56;61.58;101170.31;6244471;28;20046;-71
2022/07/31 12:32:53;;;;;;;2.53;1.00;;;;;;;24.67;62.50;101164.66;6250881;28;20128;-71
2022/07/31 12:35:55;;;;;;;2.78;1.38;;;;;;;24.61;64.81;101159.06;6250633;28;20064;-71
2022/07/31 12:39:00;;;;;;;4.43;1.70;;;;;;;24.42;61.42;101158.34;6250757;28;20436;-71
2022/07/31 12:42:04;;;;;;;3.47;1.10;;;;;;;24.29;61.76;101157.91;6247501;28;20042;-72
2022/07/31 12:45:06;;;;;;;5.07;1.20;;;;;;;24.15;62.17;101151.28;6230464;28;20054;-70
2022/07/31 12:48:07;;;;;;;1.73;1.30;;;;;;;24.08;62.94;101150.28;6225970;28;20057;-70
2022/07/31 12:51:09;;;;;;;2.03;1.10;;;;;;;24.15;62.58;101147.78;6226168;28;20498;-71
2022/07/31 12:54:11;;;;;;;3.67;1.25;;;;;;;24.15;65.83;101153.16;6225926;28;20426;-73
2022/07/31 12:57:13;;;;;;;1.90;1.20;;;;;;;24.07;69.78;101159.31;6225841;28;20057;-72
2022/07/31 13:00:17;;;;;;;4.20;1.20;;;;;;;24.00;68.70;101156.44;6225571;28;20053;-71
2022/07/31 13:03:18;;;;;;;1.98;1.13;;;;;;;23.92;70.46;101152.84;6225589;28;20049;-74
2022/07/31 13:06:19;;;;;;;2.85;1.50;;;;;;;23.93;67.22;101152.69;6225449;28;20457;-74
2022/07/31 13:09:21;;;;;;;3.08;1.35;;;;;;;24.01;67.72;101157.25;6225871;28;20046;-74
2022/07/31 13:12:23;;;;;;;2.35;1.25;;;;;;;23.99;68.10;101165.50;6225189;28;20525;-75
2022/07/31 13:15:29;;;;;;;1.30;1.08;;;;;;;24.07;67.16;101162.00;6225530;28;20141;-74
2022/07/31 13:18:31;;;;;;;1.17;1.00;;;;;;;24.09;66.11;101157.31;6225313;28;20056;-74
2022/07/31 13:21:33;;;;;;;1.40;1.20;;;;;;;24.13;66.34;101153.31;6223958;28;20056;-72
2022/07/31 13:24:34;;;;;;;1.92;1.00;;;;;;;24.32;64.96;101146.00;6224699;28;20058;-72
2022/07/31 13:27:37;;;;;;;1.10;0.90;;;;;;;24.22;68.28;101146.13;6234248;28;20136;-73
2022/07/31 13:30:38;;;;;;;2.80;1.17;;;;;;;24.22;65.52;101151.50;6229247;28;20054;-72
2022/07/31 13:33:39;;;;;;;1.23;1.13;;;;;;;24.20;65.34;101138.22;6210194;28;20456;-71
2022/07/31 13:36:41;;;;;;;1.50;1.00;;;;;;;24.13;66.15;101149.78;6223979;28;20395;-71
2022/07/31 13:39:42;;;;;;;1.63;1.08;;;;;;;24.11;66.00;101141.88;6209111;28;20446;-71
2022/07/31 13:42:45;;;;;;;1.88;1.20;;;;;;;24.06;65.24;101136.13;6219069;28;20038;-71
2022/07/31 13:45:49;;;;;;;3.22;1.45;;;;;;;24.05;67.98;101135.31;6211772;28;20135;-71
2022/07/31 13:48:51;;;;;;;1.10;1.00;;;;;;;24.04;68.43;101133.63;6221290;28;20505;-71
2022/07/31 13:51:52;;;;;;;1.77;1.00;;;;;;;24.12;69.60;101127.47;6212455;28;20512;-70
2022/07/31 13:54:54;;;;;;;2.13;1.23;;;;;;;24.20;67.81;101116.72;6222075;28;20046;-70
2022/07/31 13:57:56;;;;;;;2.03;1.50;;;;;;;24.20;68.00;101110.53;6219205;28;20057;-72
2022/07/31 14:00:59;;;;;;;4.90;1.85;;;;;;;24.17;66.38;101121.63;6214270;28;20506;-73
2022/07/31 14:04:00;;;;;;;1.90;1.13;;;;;;;24.21;65.05;101117.56;6219911;28;20511;-71
2022/07/31 14:07:02;;;;;;;2.20;1.20;;;;;;;24.23;63.89;101123.63;6210369;28;20045;-72